sensor_id;sensor_type;location;lat;lon;timestamp;P1;durP1;ratioP1;P2;durP2;ratioP2
21519;SDS011;10921;53.614;9.882;2023-12-29T00:01:22;39.28;;;32.08;;
21519;SDS011;10921;53.614;9.882;2023-12-29T00:03:48;36.50;;;32.60;;
21519;SDS011;10921;53.614;9.882;2023-12-29T00:06:15;45.40;;;35.15;;
21519;SDS011;10921;53.614;9.882;2023-12-29T00:08:42;39.63;;;33.63;;
21519;SDS011;10921;53.614;9.882;2023-12-29T00:11:15;40.33;;;33.75;;
21519;SDS011;10921;53.614;9.882;2023-12-29T00:13:46;45.63;;;33.75;;
21519;SDS011;10921;53.614;9.882;2023-12-29T00:16:13;42.45;;;33.65;;
21519;SDS011;10921;53.614;9.882;2023-12-29T00:18:40;37.70;;;33.05;;
21519;SDS011;10921;53.614;9.882;2023-12-29T00:21:07;36.58;;;32.08;;
21519;SDS011;10921;53.614;9.882;2023-12-29T00:23:34;42.70;;;33.45;;
21519;SDS011;10921;53.614;9.882;2023-12-29T00:26:00;36.10;;;32.33;;
21519;SDS011;10921;53.614;9.882;2023-12-29T00:28:27;40.55;;;32.78;;
21519;SDS011;10921;53.614;9.882;2023-12-29T00:30:54;37.13;;;33.00;;
21519;SDS011;10921;53.614;9.882;2023-12-29T00:33:28;39.60;;;32.47;;
21519;SDS011;10921;53.614;9.882;2023-12-29T00:35:55;38.38;;;33.08;;
21519;SDS011;10921;53.614;9.882;2023-12-29T00:38:22;43.72;;;33.00;;
21519;SDS011;10921;53.614;9.882;2023-12-29T00:40:48;44.42;;;33.03;;
21519;SDS011;10921;53.614;9.882;2023-12-29T00:43:15;47.88;;;33.83;;
21519;SDS011;10921;53.614;9.882;2023-12-29T00:45:44;45.42;;;32.67;;
21519;SDS011;10921;53.614;9.882;2023-12-29T00:48:11;43.83;;;33.05;;
21519;SDS011;10921;53.614;9.882;2023-12-29T00:50:37;45.10;;;31.80;;
21519;SDS011;10921;53.614;9.882;2023-12-29T00:53:04;42.63;;;32.10;;
21519;SDS011;10921;53.614;9.882;2023-12-29T00:55:30;43.65;;;32.40;;
21519;SDS011;10921;53.614;9.882;2023-12-29T00:57:59;38.20;;;32.33;;
21519;SDS011;10921;53.614;9.882;2023-12-29T01:00:26;40.75;;;31.60;;
21519;SDS011;10921;53.614;9.882;2023-12-29T01:02:53;41.78;;;32.38;;
21519;SDS011;10921;53.614;9.882;2023-12-29T01:05:19;42.10;;;32.38;;
21519;SDS011;10921;53.614;9.882;2023-12-29T01:07:47;40.63;;;31.88;;
21519;SDS011;10921;53.614;9.882;2023-12-29T01:10:14;41.10;;;31.63;;
21519;SDS011;10921;53.614;9.882;2023-12-29T01:12:40;40.63;;;32.00;;
21519;SDS011;10921;53.614;9.882;2023-12-29T01:15:07;35.47;;;31.73;;
21519;SDS011;10921;53.614;9.882;2023-12-29T01:17:34;41.75;;;31.42;;
21519;SDS011;10921;53.614;9.882;2023-12-29T01:20:01;34.80;;;30.30;;
21519;SDS011;10921;53.614;9.882;2023-12-29T01:22:30;39.28;;;31.73;;
21519;SDS011;10921;53.614;9.882;2023-12-29T01:24:58;42.70;;;31.67;;
21519;SDS011;10921;53.614;9.882;2023-12-29T01:27:26;37.35;;;30.08;;
21519;SDS011;10921;53.614;9.882;2023-12-29T01:29:53;36.58;;;30.10;;
21519;SDS011;10921;53.614;9.882;2023-12-29T01:32:22;35.63;;;30.40;;
21519;SDS011;10921;53.614;9.882;2023-12-29T01:34:49;39.78;;;30.10;;
21519;SDS011;10921;53.614;9.882;2023-12-29T01:37:16;34.50;;;30.27;;
21519;SDS011;10921;53.614;9.882;2023-12-29T01:39:43;39.17;;;29.92;;
21519;SDS011;10921;53.614;9.882;2023-12-29T01:42:09;39.53;;;29.85;;
21519;SDS011;10921;53.614;9.882;2023-12-29T01:44:37;33.63;;;30.20;;
21519;SDS011;10921;53.614;9.882;2023-12-29T01:47:05;34.55;;;29.92;;
21519;SDS011;10921;53.614;9.882;2023-12-29T01:49:39;31.75;;;28.25;;
21519;SDS011;10921;53.614;9.882;2023-12-29T01:52:06;32.78;;;29.38;;
21519;SDS011;10921;53.614;9.882;2023-12-29T01:54:34;31.88;;;28.70;;
21519;SDS011;10921;53.614;9.882;2023-12-29T01:59:31;37.20;;;29.52;;
21519;SDS011;10921;53.614;9.882;2023-12-29T02:01:58;34.70;;;28.95;;
21519;SDS011;10921;53.614;9.882;2023-12-29T02:04:26;36.00;;;30.45;;
21519;SDS011;10921;53.614;9.882;2023-12-29T02:06:54;32.10;;;28.92;;
21519;SDS011;10921;53.614;9.882;2023-12-29T02:09:21;31.40;;;28.35;;
21519;SDS011;10921;53.614;9.882;2023-12-29T02:11:48;34.72;;;29.33;;
21519;SDS011;10921;53.614;9.882;2023-12-29T02:14:15;36.47;;;28.85;;
21519;SDS011;10921;53.614;9.882;2023-12-29T02:19:40;30.67;;;23.88;;
21519;SDS011;10921;53.614;9.882;2023-12-29T02:22:12;25.98;;;23.08;;
21519;SDS011;10921;53.614;9.882;2023-12-29T02:24:39;27.80;;;22.42;;
21519;SDS011;10921;53.614;9.882;2023-12-29T02:30:18;22.48;;;20.30;;
21519;SDS011;10921;53.614;9.882;2023-12-29T02:32:45;25.80;;;20.58;;
21519;SDS011;10921;53.614;9.882;2023-12-29T02:35:18;26.48;;;19.05;;
21519;SDS011;10921;53.614;9.882;2023-12-29T02:37:48;22.38;;;17.48;;
21519;SDS011;10921;53.614;9.882;2023-12-29T02:40:15;25.05;;;16.80;;
21519;SDS011;10921;53.614;9.882;2023-12-29T02:42:46;21.20;;;18.90;;
21519;SDS011;10921;53.614;9.882;2023-12-29T02:45:14;23.98;;;19.55;;
21519;SDS011;10921;53.614;9.882;2023-12-29T02:50:11;20.60;;;18.15;;
21519;SDS011;10921;53.614;9.882;2023-12-29T02:52:38;22.73;;;18.20;;
21519;SDS011;10921;53.614;9.882;2023-12-29T02:55:05;31.85;;;17.50;;
21519;SDS011;10921;53.614;9.882;2023-12-29T02:57:32;19.65;;;16.40;;
21519;SDS011;10921;53.614;9.882;2023-12-29T02:59:58;18.60;;;16.30;;
21519;SDS011;10921;53.614;9.882;2023-12-29T03:02:25;22.38;;;16.15;;
21519;SDS011;10921;53.614;9.882;2023-12-29T03:04:52;20.35;;;15.70;;
21519;SDS011;10921;53.614;9.882;2023-12-29T03:07:18;27.15;;;14.60;;
21519;SDS011;10921;53.614;9.882;2023-12-29T03:09:45;23.02;;;15.68;;
21519;SDS011;10921;53.614;9.882;2023-12-29T03:12:11;21.17;;;15.60;;
21519;SDS011;10921;53.614;9.882;2023-12-29T03:14:38;19.73;;;15.02;;
21519;SDS011;10921;53.614;9.882;2023-12-29T03:17:04;21.23;;;14.85;;
21519;SDS011;10921;53.614;9.882;2023-12-29T03:19:34;16.55;;;14.85;;
21519;SDS011;10921;53.614;9.882;2023-12-29T03:22:02;17.83;;;14.02;;
21519;SDS011;10921;53.614;9.882;2023-12-29T03:24:29;15.43;;;13.80;;
21519;SDS011;10921;53.614;9.882;2023-12-29T03:26:56;14.95;;;13.35;;
21519;SDS011;10921;53.614;9.882;2023-12-29T03:29:23;15.85;;;13.10;;
21519;SDS011;10921;53.614;9.882;2023-12-29T03:31:50;15.32;;;13.07;;
21519;SDS011;10921;53.614;9.882;2023-12-29T03:34:17;20.70;;;13.65;;
21519;SDS011;10921;53.614;9.882;2023-12-29T03:36:44;18.63;;;13.38;;
21519;SDS011;10921;53.614;9.882;2023-12-29T03:39:10;18.80;;;13.40;;
21519;SDS011;10921;53.614;9.882;2023-12-29T03:41:37;16.67;;;13.63;;
21519;SDS011;10921;53.614;9.882;2023-12-29T03:44:04;19.00;;;12.90;;
21519;SDS011;10921;53.614;9.882;2023-12-29T03:46:32;17.00;;;12.95;;
21519;SDS011;10921;53.614;9.882;2023-12-29T03:49:00;17.23;;;12.90;;
21519;SDS011;10921;53.614;9.882;2023-12-29T03:51:26;17.70;;;12.60;;
21519;SDS011;10921;53.614;9.882;2023-12-29T03:53:53;15.25;;;12.70;;
21519;SDS011;10921;53.614;9.882;2023-12-29T03:56:20;14.57;;;12.80;;
21519;SDS011;10921;53.614;9.882;2023-12-29T03:58:46;13.88;;;12.38;;
21519;SDS011;10921;53.614;9.882;2023-12-29T04:01:14;14.75;;;12.88;;
21519;SDS011;10921;53.614;9.882;2023-12-29T04:03:42;15.77;;;12.88;;
21519;SDS011;10921;53.614;9.882;2023-12-29T04:06:10;18.80;;;13.05;;
21519;SDS011;10921;53.614;9.882;2023-12-29T04:08:37;16.80;;;14.90;;
21519;SDS011;10921;53.614;9.882;2023-12-29T04:11:04;19.70;;;17.65;;
21519;SDS011;10921;53.614;9.882;2023-12-29T04:13:31;22.75;;;19.70;;
21519;SDS011;10921;53.614;9.882;2023-12-29T04:15:59;22.98;;;20.90;;
21519;SDS011;10921;53.614;9.882;2023-12-29T04:18:26;25.63;;;22.67;;
21519;SDS011;10921;53.614;9.882;2023-12-29T04:20:52;24.85;;;22.55;;
21519;SDS011;10921;53.614;9.882;2023-12-29T04:23:19;23.33;;;21.35;;
21519;SDS011;10921;53.614;9.882;2023-12-29T04:25:46;24.48;;;22.05;;
21519;SDS011;10921;53.614;9.882;2023-12-29T04:28:12;23.88;;;21.98;;
21519;SDS011;10921;53.614;9.882;2023-12-29T04:30:39;24.45;;;22.15;;
21519;SDS011;10921;53.614;9.882;2023-12-29T04:33:06;25.27;;;23.13;;
21519;SDS011;10921;53.614;9.882;2023-12-29T04:35:32;24.90;;;22.80;;
21519;SDS011;10921;53.614;9.882;2023-12-29T04:37:59;24.98;;;22.88;;
21519;SDS011;10921;53.614;9.882;2023-12-29T04:40:26;26.05;;;23.83;;
21519;SDS011;10921;53.614;9.882;2023-12-29T04:42:52;26.90;;;24.65;;
21519;SDS011;10921;53.614;9.882;2023-12-29T04:45:19;26.65;;;24.13;;
21519;SDS011;10921;53.614;9.882;2023-12-29T04:47:45;25.45;;;23.20;;
21519;SDS011;10921;53.614;9.882;2023-12-29T04:50:12;24.45;;;22.30;;
21519;SDS011;10921;53.614;9.882;2023-12-29T04:52:39;24.25;;;22.25;;
21519;SDS011;10921;53.614;9.882;2023-12-29T04:55:05;23.58;;;21.67;;
21519;SDS011;10921;53.614;9.882;2023-12-29T04:57:32;22.90;;;20.95;;
21519;SDS011;10921;53.614;9.882;2023-12-29T04:59:59;23.63;;;21.70;;
21519;SDS011;10921;53.614;9.882;2023-12-29T05:02:25;23.63;;;21.73;;
21519;SDS011;10921;53.614;9.882;2023-12-29T05:04:52;23.35;;;21.40;;
21519;SDS011;10921;53.614;9.882;2023-12-29T05:07:19;27.38;;;25.23;;
21519;SDS011;10921;53.614;9.882;2023-12-29T05:09:45;26.05;;;23.83;;
21519;SDS011;10921;53.614;9.882;2023-12-29T05:12:12;26.85;;;24.25;;
21519;SDS011;10921;53.614;9.882;2023-12-29T05:14:38;28.42;;;24.30;;
21519;SDS011;10921;53.614;9.882;2023-12-29T05:17:05;26.38;;;23.90;;
21519;SDS011;10921;53.614;9.882;2023-12-29T05:19:31;25.77;;;23.50;;
21519;SDS011;10921;53.614;9.882;2023-12-29T05:21:58;27.40;;;24.10;;
21519;SDS011;10921;53.614;9.882;2023-12-29T05:24:25;27.23;;;24.23;;
21519;SDS011;10921;53.614;9.882;2023-12-29T05:26:54;26.40;;;23.77;;
21519;SDS011;10921;53.614;9.882;2023-12-29T05:29:21;26.15;;;23.70;;
21519;SDS011;10921;53.614;9.882;2023-12-29T05:31:47;25.73;;;23.48;;
21519;SDS011;10921;53.614;9.882;2023-12-29T05:34:14;26.95;;;23.75;;
21519;SDS011;10921;53.614;9.882;2023-12-29T05:36:41;25.83;;;23.55;;
21519;SDS011;10921;53.614;9.882;2023-12-29T05:39:08;27.73;;;23.00;;
21519;SDS011;10921;53.614;9.882;2023-12-29T05:41:35;23.92;;;21.63;;
21519;SDS011;10921;53.614;9.882;2023-12-29T05:44:01;24.52;;;22.15;;
21519;SDS011;10921;53.614;9.882;2023-12-29T05:46:28;23.10;;;20.60;;
21519;SDS011;10921;53.614;9.882;2023-12-29T05:48:55;23.30;;;20.95;;
21519;SDS011;10921;53.614;9.882;2023-12-29T05:51:22;21.88;;;19.70;;
21519;SDS011;10921;53.614;9.882;2023-12-29T05:53:49;23.75;;;19.70;;
21519;SDS011;10921;53.614;9.882;2023-12-29T05:56:15;22.67;;;19.33;;
21519;SDS011;10921;53.614;9.882;2023-12-29T05:58:42;27.45;;;19.33;;
21519;SDS011;10921;53.614;9.882;2023-12-29T06:01:09;21.10;;;18.90;;
21519;SDS011;10921;53.614;9.882;2023-12-29T06:03:37;22.48;;;18.70;;
21519;SDS011;10921;53.614;9.882;2023-12-29T06:06:04;28.70;;;19.20;;
21519;SDS011;10921;53.614;9.882;2023-12-29T06:08:30;23.50;;;19.10;;
21519;SDS011;10921;53.614;9.882;2023-12-29T06:10:57;20.55;;;18.40;;
21519;SDS011;10921;53.614;9.882;2023-12-29T06:13:24;20.27;;;18.02;;
21519;SDS011;10921;53.614;9.882;2023-12-29T06:15:50;25.50;;;17.58;;
21519;SDS011;10921;53.614;9.882;2023-12-29T06:18:17;25.17;;;18.75;;
21519;SDS011;10921;53.614;9.882;2023-12-29T06:20:44;21.70;;;17.52;;
21519;SDS011;10921;53.614;9.882;2023-12-29T06:23:10;21.73;;;17.23;;
21519;SDS011;10921;53.614;9.882;2023-12-29T06:25:37;27.23;;;16.73;;
21519;SDS011;10921;53.614;9.882;2023-12-29T06:28:06;22.13;;;17.27;;
21519;SDS011;10921;53.614;9.882;2023-12-29T06:30:33;23.75;;;17.30;;
21519;SDS011;10921;53.614;9.882;2023-12-29T06:33:00;28.95;;;18.20;;
21519;SDS011;10921;53.614;9.882;2023-12-29T06:35:27;25.02;;;17.60;;
21519;SDS011;10921;53.614;9.882;2023-12-29T06:37:53;22.52;;;17.05;;
21519;SDS011;10921;53.614;9.882;2023-12-29T06:40:20;30.98;;;16.83;;
21519;SDS011;10921;53.614;9.882;2023-12-29T06:42:46;30.38;;;16.65;;
21519;SDS011;10921;53.614;9.882;2023-12-29T06:45:16;25.20;;;15.80;;
21519;SDS011;10921;53.614;9.882;2023-12-29T06:47:42;21.33;;;16.13;;
21519;SDS011;10921;53.614;9.882;2023-12-29T06:50:09;21.60;;;16.13;;
21519;SDS011;10921;53.614;9.882;2023-12-29T06:52:39;23.20;;;16.03;;
21519;SDS011;10921;53.614;9.882;2023-12-29T06:55:06;29.30;;;16.23;;
21519;SDS011;10921;53.614;9.882;2023-12-29T06:57:34;28.85;;;16.92;;
21519;SDS011;10921;53.614;9.882;2023-12-29T07:00:00;27.00;;;15.73;;
21519;SDS011;10921;53.614;9.882;2023-12-29T07:02:27;22.75;;;15.27;;
21519;SDS011;10921;53.614;9.882;2023-12-29T07:04:54;24.17;;;15.73;;
21519;SDS011;10921;53.614;9.882;2023-12-29T07:07:20;20.63;;;15.02;;
21519;SDS011;10921;53.614;9.882;2023-12-29T07:09:47;19.17;;;12.85;;
21519;SDS011;10921;53.614;9.882;2023-12-29T07:12:14;33.30;;;15.20;;
21519;SDS011;10921;53.614;9.882;2023-12-29T07:14:41;24.42;;;15.43;;
21519;SDS011;10921;53.614;9.882;2023-12-29T07:17:08;31.17;;;15.57;;
21519;SDS011;10921;53.614;9.882;2023-12-29T07:19:35;32.85;;;15.07;;
21519;SDS011;10921;53.614;9.882;2023-12-29T07:22:04;24.33;;;15.07;;
21519;SDS011;10921;53.614;9.882;2023-12-29T07:24:32;26.30;;;11.82;;
21519;SDS011;10921;53.614;9.882;2023-12-29T07:26:59;31.05;;;12.35;;
21519;SDS011;10921;53.614;9.882;2023-12-29T07:29:25;30.38;;;12.05;;
21519;SDS011;10921;53.614;9.882;2023-12-29T07:31:52;27.50;;;11.73;;
21519;SDS011;10921;53.614;9.882;2023-12-29T07:34:19;31.00;;;11.57;;
21519;SDS011;10921;53.614;9.882;2023-12-29T07:36:47;32.17;;;11.65;;
21519;SDS011;10921;53.614;9.882;2023-12-29T07:39:14;30.35;;;11.43;;
21519;SDS011;10921;53.614;9.882;2023-12-29T07:41:41;36.35;;;12.27;;
21519;SDS011;10921;53.614;9.882;2023-12-29T07:44:11;31.10;;;11.75;;
21519;SDS011;10921;53.614;9.882;2023-12-29T07:46:38;30.92;;;11.18;;
21519;SDS011;10921;53.614;9.882;2023-12-29T07:49:06;28.85;;;11.63;;
21519;SDS011;10921;53.614;9.882;2023-12-29T07:51:33;34.80;;;12.27;;
21519;SDS011;10921;53.614;9.882;2023-12-29T07:54:00;32.55;;;11.48;;
21519;SDS011;10921;53.614;9.882;2023-12-29T07:56:26;29.02;;;11.65;;
21519;SDS011;10921;53.614;9.882;2023-12-29T07:58:53;30.83;;;12.48;;
21519;SDS011;10921;53.614;9.882;2023-12-29T08:01:20;29.15;;;12.25;;
21519;SDS011;10921;53.614;9.882;2023-12-29T08:03:46;39.13;;;11.65;;
21519;SDS011;10921;53.614;9.882;2023-12-29T08:06:13;34.00;;;11.98;;
21519;SDS011;10921;53.614;9.882;2023-12-29T08:08:40;35.47;;;12.65;;
21519;SDS011;10921;53.614;9.882;2023-12-29T08:11:13;25.85;;;11.32;;
21519;SDS011;10921;53.614;9.882;2023-12-29T08:13:43;32.17;;;12.55;;
21519;SDS011;10921;53.614;9.882;2023-12-29T08:16:11;33.30;;;12.27;;
21519;SDS011;10921;53.614;9.882;2023-12-29T08:18:38;36.05;;;12.23;;
21519;SDS011;10921;53.614;9.882;2023-12-29T08:21:05;41.25;;;12.40;;
21519;SDS011;10921;53.614;9.882;2023-12-29T08:23:31;36.40;;;12.30;;
21519;SDS011;10921;53.614;9.882;2023-12-29T08:25:58;28.35;;;11.70;;
21519;SDS011;10921;53.614;9.882;2023-12-29T08:28:24;29.27;;;12.52;;
21519;SDS011;10921;53.614;9.882;2023-12-29T08:30:51;34.20;;;13.25;;
21519;SDS011;10921;53.614;9.882;2023-12-29T08:33:18;42.10;;;12.85;;
21519;SDS011;10921;53.614;9.882;2023-12-29T08:35:45;33.40;;;12.05;;
21519;SDS011;10921;53.614;9.882;2023-12-29T08:38:12;32.97;;;11.90;;
21519;SDS011;10921;53.614;9.882;2023-12-29T08:40:39;26.45;;;11.60;;
21519;SDS011;10921;53.614;9.882;2023-12-29T08:43:07;27.65;;;12.18;;
21519;SDS011;10921;53.614;9.882;2023-12-29T08:45:34;33.28;;;12.23;;
21519;SDS011;10921;53.614;9.882;2023-12-29T08:48:01;31.83;;;12.20;;
21519;SDS011;10921;53.614;9.882;2023-12-29T08:50:29;27.73;;;12.68;;
21519;SDS011;10921;53.614;9.882;2023-12-29T08:52:56;23.35;;;11.98;;
21519;SDS011;10921;53.614;9.882;2023-12-29T08:55:23;25.20;;;11.40;;
21519;SDS011;10921;53.614;9.882;2023-12-29T08:57:49;26.20;;;10.98;;
21519;SDS011;10921;53.614;9.882;2023-12-29T09:00:16;25.60;;;11.45;;
21519;SDS011;10921;53.614;9.882;2023-12-29T09:02:43;22.35;;;11.13;;
21519;SDS011;10921;53.614;9.882;2023-12-29T09:05:11;22.50;;;11.82;;
21519;SDS011;10921;53.614;9.882;2023-12-29T09:07:37;22.10;;;11.20;;
21519;SDS011;10921;53.614;9.882;2023-12-29T09:10:04;24.20;;;11.77;;
21519;SDS011;10921;53.614;9.882;2023-12-29T09:15:01;22.35;;;10.60;;
21519;SDS011;10921;53.614;9.882;2023-12-29T09:17:28;19.90;;;10.60;;
21519;SDS011;10921;53.614;9.882;2023-12-29T09:19:55;18.83;;;10.65;;
21519;SDS011;10921;53.614;9.882;2023-12-29T09:22:35;17.43;;;10.10;;
21519;SDS011;10921;53.614;9.882;2023-12-29T09:25:01;20.05;;;10.90;;
21519;SDS011;10921;53.614;9.882;2023-12-29T09:27:29;15.15;;;11.20;;
21519;SDS011;10921;53.614;9.882;2023-12-29T09:29:55;15.93;;;10.75;;
21519;SDS011;10921;53.614;9.882;2023-12-29T09:32:22;19.45;;;11.27;;
21519;SDS011;10921;53.614;9.882;2023-12-29T09:34:48;33.83;;;11.75;;
21519;SDS011;10921;53.614;9.882;2023-12-29T09:37:15;28.65;;;11.40;;
21519;SDS011;10921;53.614;9.882;2023-12-29T09:39:41;23.60;;;11.48;;
21519;SDS011;10921;53.614;9.882;2023-12-29T09:42:09;26.85;;;12.02;;
21519;SDS011;10921;53.614;9.882;2023-12-29T09:44:58;25.10;;;11.15;;
21519;SDS011;10921;53.614;9.882;2023-12-29T09:47:29;20.88;;;10.23;;
21519;SDS011;10921;53.614;9.882;2023-12-29T09:49:59;28.17;;;11.18;;
21519;SDS011;10921;53.614;9.882;2023-12-29T09:52:34;26.73;;;11.68;;
21519;SDS011;10921;53.614;9.882;2023-12-29T09:55:02;24.95;;;11.07;;
21519;SDS011;10921;53.614;9.882;2023-12-29T09:57:30;25.40;;;11.10;;
21519;SDS011;10921;53.614;9.882;2023-12-29T09:59:57;23.95;;;10.90;;
21519;SDS011;10921;53.614;9.882;2023-12-29T10:02:23;25.20;;;12.70;;
21519;SDS011;10921;53.614;9.882;2023-12-29T10:04:50;19.17;;;12.60;;
21519;SDS011;10921;53.614;9.882;2023-12-29T10:07:23;25.27;;;13.57;;
21519;SDS011;10921;53.614;9.882;2023-12-29T10:09:55;21.02;;;13.23;;
21519;SDS011;10921;53.614;9.882;2023-12-29T10:12:24;21.73;;;13.07;;
21519;SDS011;10921;53.614;9.882;2023-12-29T10:14:56;31.15;;;14.23;;
21519;SDS011;10921;53.614;9.882;2023-12-29T10:23:34;28.25;;;14.13;;
21519;SDS011;10921;53.614;9.882;2023-12-29T10:26:05;29.05;;;13.90;;
21519;SDS011;10921;53.614;9.882;2023-12-29T10:28:33;34.53;;;14.18;;
21519;SDS011;10921;53.614;9.882;2023-12-29T10:30:59;24.08;;;13.50;;
21519;SDS011;10921;53.614;9.882;2023-12-29T10:33:26;32.53;;;14.10;;
21519;SDS011;10921;53.614;9.882;2023-12-29T10:35:59;30.23;;;13.93;;
21519;SDS011;10921;53.614;9.882;2023-12-29T10:38:39;35.13;;;13.80;;
21519;SDS011;10921;53.614;9.882;2023-12-29T10:41:10;25.50;;;13.13;;
21519;SDS011;10921;53.614;9.882;2023-12-29T10:43:39;37.13;;;14.37;;
21519;SDS011;10921;53.614;9.882;2023-12-29T10:46:11;29.00;;;13.27;;
21519;SDS011;10921;53.614;9.882;2023-12-29T10:48:38;41.50;;;15.07;;
21519;SDS011;10921;53.614;9.882;2023-12-29T10:51:05;30.25;;;13.93;;
21519;SDS011;10921;53.614;9.882;2023-12-29T10:53:33;29.25;;;13.68;;
21519;SDS011;10921;53.614;9.882;2023-12-29T10:56:09;31.25;;;13.48;;
21519;SDS011;10921;53.614;9.882;2023-12-29T10:58:46;35.95;;;13.73;;
21519;SDS011;10921;53.614;9.882;2023-12-29T11:01:23;28.48;;;13.50;;
21519;SDS011;10921;53.614;9.882;2023-12-29T11:04:00;31.48;;;13.85;;
21519;SDS011;10921;53.614;9.882;2023-12-29T11:06:40;33.65;;;14.07;;
21519;SDS011;10921;53.614;9.882;2023-12-29T11:09:11;28.27;;;13.23;;
21519;SDS011;10921;53.614;9.882;2023-12-29T11:11:38;29.98;;;13.30;;
21519;SDS011;10921;53.614;9.882;2023-12-29T11:14:05;31.25;;;13.65;;
21519;SDS011;10921;53.614;9.882;2023-12-29T11:16:31;28.48;;;13.23;;
21519;SDS011;10921;53.614;9.882;2023-12-29T11:18:58;29.08;;;13.77;;
21519;SDS011;10921;53.614;9.882;2023-12-29T11:21:26;23.42;;;13.00;;
21519;SDS011;10921;53.614;9.882;2023-12-29T11:23:56;24.40;;;13.30;;
21519;SDS011;10921;53.614;9.882;2023-12-29T11:26:22;27.67;;;13.98;;
21519;SDS011;10921;53.614;9.882;2023-12-29T11:28:53;32.30;;;13.95;;
21519;SDS011;10921;53.614;9.882;2023-12-29T11:31:20;24.08;;;14.32;;
21519;SDS011;10921;53.614;9.882;2023-12-29T11:33:50;24.00;;;13.52;;
21519;SDS011;10921;53.614;9.882;2023-12-29T11:36:24;31.30;;;12.98;;
21519;SDS011;10921;53.614;9.882;2023-12-29T11:41:42;22.92;;;13.60;;
21519;SDS011;10921;53.614;9.882;2023-12-29T11:44:16;26.33;;;13.52;;
21519;SDS011;10921;53.614;9.882;2023-12-29T11:46:51;22.80;;;13.13;;
21519;SDS011;10921;53.614;9.882;2023-12-29T11:49:18;27.33;;;13.13;;
21519;SDS011;10921;53.614;9.882;2023-12-29T11:51:49;28.52;;;13.13;;
21519;SDS011;10921;53.614;9.882;2023-12-29T11:56:53;20.80;;;13.02;;
21519;SDS011;10921;53.614;9.882;2023-12-29T11:59:21;20.02;;;12.95;;
21519;SDS011;10921;53.614;9.882;2023-12-29T12:01:53;24.85;;;13.15;;
21519;SDS011;10921;53.614;9.882;2023-12-29T12:04:33;24.95;;;13.20;;
21519;SDS011;10921;53.614;9.882;2023-12-29T12:07:02;22.40;;;13.68;;
21519;SDS011;10921;53.614;9.882;2023-12-29T12:09:29;21.13;;;13.65;;
21519;SDS011;10921;53.614;9.882;2023-12-29T12:11:56;22.08;;;13.48;;
21519;SDS011;10921;53.614;9.882;2023-12-29T12:17:35;21.52;;;14.00;;
21519;SDS011;10921;53.614;9.882;2023-12-29T12:22:33;29.75;;;13.68;;
21519;SDS011;10921;53.614;9.882;2023-12-29T12:25:04;23.90;;;14.13;;
21519;SDS011;10921;53.614;9.882;2023-12-29T12:27:31;28.48;;;14.10;;
21519;SDS011;10921;53.614;9.882;2023-12-29T12:29:59;21.25;;;13.63;;
21519;SDS011;10921;53.614;9.882;2023-12-29T12:32:26;22.02;;;13.25;;
21519;SDS011;10921;53.614;9.882;2023-12-29T12:34:54;22.02;;;13.02;;
21519;SDS011;10921;53.614;9.882;2023-12-29T12:37:22;27.13;;;15.13;;
21519;SDS011;10921;53.614;9.882;2023-12-29T12:39:50;26.20;;;14.65;;
21519;SDS011;10921;53.614;9.882;2023-12-29T12:42:21;25.45;;;13.25;;
21519;SDS011;10921;53.614;9.882;2023-12-29T12:47:27;21.35;;;13.55;;
21519;SDS011;10921;53.614;9.882;2023-12-29T12:50:00;24.05;;;13.27;;
21519;SDS011;10921;53.614;9.882;2023-12-29T12:52:35;31.23;;;14.00;;
21519;SDS011;10921;53.614;9.882;2023-12-29T12:55:02;20.05;;;12.90;;
21519;SDS011;10921;53.614;9.882;2023-12-29T12:57:29;19.13;;;13.07;;
21519;SDS011;10921;53.614;9.882;2023-12-29T12:59:57;18.70;;;13.30;;
21519;SDS011;10921;53.614;9.882;2023-12-29T13:02:27;21.45;;;13.68;;
21519;SDS011;10921;53.614;9.882;2023-12-29T13:04:54;28.50;;;14.55;;
21519;SDS011;10921;53.614;9.882;2023-12-29T13:07:21;19.58;;;13.48;;
21519;SDS011;10921;53.614;9.882;2023-12-29T13:09:49;15.60;;;12.63;;
21519;SDS011;10921;53.614;9.882;2023-12-29T13:12:17;21.13;;;13.32;;
21519;SDS011;10921;53.614;9.882;2023-12-29T13:14:44;22.00;;;14.13;;
21519;SDS011;10921;53.614;9.882;2023-12-29T13:17:14;21.23;;;13.27;;
21519;SDS011;10921;53.614;9.882;2023-12-29T13:19:42;17.65;;;13.15;;
21519;SDS011;10921;53.614;9.882;2023-12-29T13:22:11;20.92;;;12.95;;
21519;SDS011;10921;53.614;9.882;2023-12-29T13:24:45;21.45;;;13.02;;
21519;SDS011;10921;53.614;9.882;2023-12-29T13:27:12;19.63;;;13.10;;
21519;SDS011;10921;53.614;9.882;2023-12-29T13:29:40;20.52;;;15.13;;
21519;SDS011;10921;53.614;9.882;2023-12-29T13:40:16;23.25;;;19.90;;
21519;SDS011;10921;53.614;9.882;2023-12-29T13:43:02;29.15;;;20.52;;
21519;SDS011;10921;53.614;9.882;2023-12-29T13:45:30;27.83;;;18.90;;
21519;SDS011;10921;53.614;9.882;2023-12-29T13:47:57;37.17;;;20.98;;
21519;SDS011;10921;53.614;9.882;2023-12-29T13:50:26;24.13;;;17.42;;
21519;SDS011;10921;53.614;9.882;2023-12-29T13:52:52;26.38;;;15.88;;
21519;SDS011;10921;53.614;9.882;2023-12-29T13:55:22;22.00;;;15.95;;
21519;SDS011;10921;53.614;9.882;2023-12-29T13:57:51;25.85;;;15.65;;
21519;SDS011;10921;53.614;9.882;2023-12-29T14:02:48;26.20;;;15.55;;
21519;SDS011;10921;53.614;9.882;2023-12-29T14:08:04;22.55;;;14.27;;
21519;SDS011;10921;53.614;9.882;2023-12-29T14:10:36;25.98;;;14.13;;
21519;SDS011;10921;53.614;9.882;2023-12-29T14:13:12;31.42;;;14.95;;
21519;SDS011;10921;53.614;9.882;2023-12-29T14:15:41;24.10;;;14.60;;
21519;SDS011;10921;53.614;9.882;2023-12-29T14:20:39;19.77;;;12.90;;
21519;SDS011;10921;53.614;9.882;2023-12-29T14:23:08;24.30;;;14.02;;
21519;SDS011;10921;53.614;9.882;2023-12-29T14:25:36;21.42;;;13.30;;
21519;SDS011;10921;53.614;9.882;2023-12-29T14:28:03;33.35;;;14.00;;
21519;SDS011;10921;53.614;9.882;2023-12-29T14:30:40;24.27;;;14.05;;
21519;SDS011;10921;53.614;9.882;2023-12-29T14:33:07;30.65;;;14.25;;
21519;SDS011;10921;53.614;9.882;2023-12-29T14:35:34;30.98;;;14.15;;
21519;SDS011;10921;53.614;9.882;2023-12-29T14:38:00;31.75;;;14.85;;
21519;SDS011;10921;53.614;9.882;2023-12-29T14:40:27;31.25;;;13.95;;
21519;SDS011;10921;53.614;9.882;2023-12-29T14:42:54;23.48;;;13.82;;
21519;SDS011;10921;53.614;9.882;2023-12-29T14:45:21;28.50;;;13.45;;
21519;SDS011;10921;53.614;9.882;2023-12-29T14:47:47;32.53;;;13.57;;
21519;SDS011;10921;53.614;9.882;2023-12-29T14:50:17;32.38;;;13.23;;
21519;SDS011;10921;53.614;9.882;2023-12-29T14:52:43;25.63;;;12.48;;
21519;SDS011;10921;53.614;9.882;2023-12-29T14:55:10;26.15;;;12.98;;
21519;SDS011;10921;53.614;9.882;2023-12-29T14:57:37;26.38;;;12.27;;
21519;SDS011;10921;53.614;9.882;2023-12-29T15:00:04;25.35;;;12.15;;
21519;SDS011;10921;53.614;9.882;2023-12-29T15:02:31;28.95;;;12.90;;
21519;SDS011;10921;53.614;9.882;2023-12-29T15:04:57;30.35;;;13.48;;
21519;SDS011;10921;53.614;9.882;2023-12-29T15:07:24;23.40;;;12.48;;
21519;SDS011;10921;53.614;9.882;2023-12-29T15:09:56;28.10;;;13.40;;
21519;SDS011;10921;53.614;9.882;2023-12-29T15:12:23;28.08;;;11.45;;
21519;SDS011;10921;53.614;9.882;2023-12-29T15:14:49;34.22;;;11.10;;